Kenora Airport
CYQK : now visible

Airfield :











YOU CAN JOIN US ON...

 
LOGIN :

Register | Disclaimer

   EN    FR    IT 

 









Legend :    VFR   Marginal VFR   IFR   Intensive IFR   Very Intensive IFR
Visi :
Ceiling :
>= 8 km
>= 3000ft
5 to 8 km
1000 to 3000 ft
1500m to 5 km
500 to 1000 ft
800 to 1500m
200 to 500 ft
< 800m
< 200 ft
Symbols :   Thunderstorms  Fog  Heavy snow  Heavy precipitations  Wind > 20 kt






- Airport Elevation : 1332 ft
- IATA code : YQK


CYQK - Kenora

CURRENT METAR :
  • 231400Z 25008KT 20SM FEW110 FEW130 M08/M10 A2954 RMK AC1AC1 SLP027

EXPIRED METARs :
  • 231300Z 24006KT 20SM BKN110 M08/M09 A2953 RMK AC6 SLP024
  • 231200Z 21006KT 20SM SCT092 BKN110 OVC230 M07/M09 A2954 RMK AC4AC3CI1 SLP027

TAF TAF CYQK
Valid from the 23 at 14:00 until the 24 at 02:00 UTC


231339Z 2314/2402 24006KT P6SM BKN110
FM231700 29010G20KT 6SM -SN OVC025
TEMPO 2317/2321 3SM -SN
PROB30 2317/2321 2SM -FZDZ BR
FM232100 29015G25KT P6SM -SHSNRA BKN030
TEMPO 2321/2402 21/2SM -SHSNRA
PROB30 2321/2402 2SM -SHSN RMK NXT FCST BY 232000Z



MET'MAP, your aeronautical weather chart ! - Copyright ORBIFLY December 2007 - Disclaimer

ORBIFLY MET'MAP TEAM :

Programming & Development : Alexandra Zaïnal
Concept & original design : Baudouin d'Aumeries
Assistance for programming : Marc-Olivier Méhu
Technical & hardware support : Manuel Goepfert

Contact : metmap@orbifly.com




SOURCES & CREDITS :

   NOAA       Earth
Advisory